Time;durP1;ratioP1;P1;durP2;ratioP2;P2;SDS_P1;SDS_P2;PMS_P1;PMS_P2;Temp;Humidity;BMP_temperature;BMP_pressure;BME280_temperature;BME280_humidity;BME280_pressure;Samples;Min_cycle;Max_cycle;Signal;HPM_P1;HPM_P2
2020/12/09 00:04:47;;;;;;;31.75;19.20;;;2.20;99.90;;;;;;5104344;23;20050;-86
2020/12/09 00:07:13;;;;;;;30.48;18.67;;;2.20;99.90;;;;;;4958586;29;20059;-86
2020/12/09 00:09:40;;;;;;;31.98;18.25;;;2.10;99.90;;;;;;4958432;29;20138;-87
2020/12/09 00:12:07;;;;;;;33.72;19.23;;;2.20;99.90;;;;;;4958428;28;20044;-86
2020/12/09 00:14:37;;;;;;;32.90;18.88;;;2.10;99.90;;;;;;4958243;29;20176;-86
2020/12/09 00:17:03;;;;;;;33.47;19.95;;;2.20;99.90;;;;;;4958160;29;20409;-87
2020/12/09 00:19:30;;;;;;;32.28;19.13;;;2.10;99.90;;;;;;4958280;29;20138;-87
2020/12/09 00:21:56;;;;;;;33.83;19.95;;;2.10;99.90;;;;;;4958518;29;20147;-87
2020/12/09 00:24:23;;;;;;;27.80;18.42;;;2.20;99.90;;;;;;4957691;28;20499;-87
2020/12/09 00:26:50;;;;;;;33.17;20.40;;;2.10;99.90;;;;;;4957579;28;20051;-86
2020/12/09 00:29:16;;;;;;;32.60;19.27;;;2.10;99.90;;;;;;4959168;29;20130;-84
2020/12/09 00:31:44;;;;;;;33.20;19.92;;;1.90;99.90;;;;;;4958543;29;20155;-84
2020/12/09 00:34:11;;;;;;;31.42;18.83;;;1.90;99.90;;;;;;4958606;28;20488;-84
2020/12/09 00:36:38;;;;;;;32.83;18.15;;;1.80;99.90;;;;;;4958456;28;20051;-84
2020/12/09 00:39:04;;;;;;;29.13;17.52;;;1.80;99.90;;;;;;4959026;29;20142;-84
2020/12/09 00:41:31;;;;;;;30.77;18.48;;;1.70;99.90;;;;;;4958700;29;20091;-84
2020/12/09 00:43:58;;;;;;;32.60;18.38;;;1.70;99.90;;;;;;4957678;28;20051;-84
2020/12/09 00:46:26;;;;;;;30.88;18.27;;;1.60;99.90;;;;;;4957569;29;20119;-84
2020/12/09 00:48:54;;;;;;;32.97;19.23;;;1.60;99.90;;;;;;4938739;29;20416;-84
2020/12/09 00:51:23;;;;;;;32.05;19.25;;;1.60;99.90;;;;;;4938658;29;20056;-84
2020/12/09 00:53:50;;;;;;;34.22;19.85;;;1.60;99.90;;;;;;4942925;29;20042;-84
2020/12/09 00:56:16;;;;;;;31.52;19.20;;;1.40;99.90;;;;;;4958661;29;20063;-84
2020/12/09 00:58:43;;;;;;;32.95;19.20;;;1.40;99.90;;;;;;4957741;29;20059;-84
2020/12/09 01:01:11;;;;;;;36.25;19.25;;;1.30;99.90;;;;;;4958219;29;20055;-84
2020/12/09 01:03:52;;;;;;;37.95;19.80;;;1.20;99.90;;;;;;5089670;27;20913;-63
2020/12/09 01:06:19;;;;;;;37.15;20.13;;;1.40;99.90;;;;;;5049886;28;20053;-63
2020/12/09 01:08:45;;;;;;;41.92;21.17;;;1.50;99.90;;;;;;5050187;28;20081;-63
2020/12/09 01:11:14;;;;;;;36.97;20.77;;;1.70;99.90;;;;;;5049851;28;20104;-63
2020/12/09 01:13:44;;;;;;;38.38;20.17;;;1.70;99.90;;;;;;5064830;28;20520;-63
2020/12/09 01:16:13;;;;;;;;;;;1.70;99.90;;;;;;5070471;28;20394;-63
2020/12/09 01:18:40;;;;;;;37.17;20.42;;;1.80;99.90;;;;;;5069756;28;19997;-63
2020/12/09 01:21:07;;;;;;;33.97;19.48;;;1.90;99.90;;;;;;5069712;28;20064;-63
2020/12/09 01:23:36;;;;;;;33.15;18.52;;;2.00;99.90;;;;;;5069300;28;20048;-62
2020/12/09 01:26:08;;;;;;;36.28;20.00;;;2.00;99.90;;;;;;5069580;28;20052;-62
2020/12/09 01:28:35;;;;;;;36.58;20.58;;;2.00;99.90;;;;;;5069325;28;20068;-62
2020/12/09 01:31:01;;;;;;;34.60;18.80;;;2.00;99.90;;;;;;5069556;28;20091;-63
2020/12/09 01:33:28;;;;;;;35.33;19.48;;;1.90;99.90;;;;;;5069365;28;20057;-63
2020/12/09 01:35:54;;;;;;;33.22;18.15;;;1.90;99.90;;;;;;5069330;28;20106;-62
2020/12/09 01:38:21;;;;;;;66.50;23.23;;;1.80;99.90;;;;;;5069474;28;20095;-63
2020/12/09 01:40:48;;;;;;;80.63;23.13;;;1.90;99.90;;;;;;5069600;28;20061;-63
2020/12/09 01:43:14;;;;;;;137.77;29.85;;;2.00;99.90;;;;;;5068947;28;20462;-63
2020/12/09 01:45:41;;;;;;;60.83;23.73;;;2.20;99.90;;;;;;5069258;28;20543;-63
2020/12/09 01:48:10;;;;;;;57.22;23.75;;;2.00;99.90;;;;;;5069366;28;20088;-63
2020/12/09 01:50:37;;;;;;;72.05;25.73;;;1.90;99.90;;;;;;5069581;28;20111;-63
2020/12/09 01:53:06;;;;;;;70.25;24.25;;;1.70;99.90;;;;;;5068789;28;20072;-62
2020/12/09 01:55:33;;;;;;;102.32;27.02;;;1.60;99.90;;;;;;5069090;28;20082;-62
2020/12/09 01:58:00;;;;;;;213.07;40.42;;;1.60;99.90;;;;;;5069322;28;20049;-62
2020/12/09 02:00:26;;;;;;;83.05;25.67;;;1.70;99.90;;;;;;5068771;28;20084;-63
2020/12/09 02:02:53;;;;;;;77.80;25.65;;;1.60;99.90;;;;;;5068266;28;20088;-62
2020/12/09 02:05:19;;;;;;;87.32;27.17;;;1.50;99.90;;;;;;5068655;28;20110;-62
2020/12/09 02:07:46;;;;;;;91.22;26.67;;;1.70;99.90;;;;;;5068250;28;20091;-63
2020/12/09 02:10:14;;;;;;;105.80;28.38;;;1.80;99.90;;;;;;5068664;28;20099;-62
2020/12/09 02:12:42;;;;;;;57.70;23.73;;;1.90;99.90;;;;;;5068486;28;20072;-62
2020/12/09 02:15:08;;;;;;;58.10;25.05;;;2.00;99.90;;;;;;5055753;28;20098;-63
2020/12/09 02:17:35;;;;;;;62.97;25.92;;;1.90;99.90;;;;;;5055405;28;20053;-63
2020/12/09 02:20:02;;;;;;;65.90;25.00;;;1.80;99.90;;;;;;5055442;28;20088;-63
2020/12/09 02:22:30;;;;;;;52.13;23.75;;;1.90;99.90;;;;;;5054817;28;20085;-63
2020/12/09 02:24:56;;;;;;;67.07;25.17;;;1.90;99.90;;;;;;5055517;28;20048;-63
2020/12/09 02:27:23;;;;;;;51.67;23.13;;;2.00;99.90;;;;;;5055319;28;20053;-62
2020/12/09 02:29:50;;;;;;;53.30;23.42;;;1.70;99.90;;;;;;5055028;28;20084;-63
2020/12/09 02:32:16;;;;;;;50.90;22.73;;;1.50;99.90;;;;;;5055066;28;20540;-63
2020/12/09 02:34:43;;;;;;;43.85;21.95;;;1.40;99.90;;;;;;5055011;28;20053;-63
2020/12/09 02:37:10;;;;;;;41.80;21.45;;;1.30;99.90;;;;;;5055326;28;20130;-63
2020/12/09 02:39:38;;;;;;;37.30;21.90;;;1.50;99.90;;;;;;5055245;28;20136;-63
2020/12/09 02:42:05;;;;;;;33.08;20.17;;;1.70;99.90;;;;;;5054718;28;20128;-63
2020/12/09 02:44:32;;;;;;;35.55;20.15;;;1.60;99.90;;;;;;5054994;28;20516;-63
2020/12/09 02:46:59;;;;;;;34.78;20.23;;;1.60;99.90;;;;;;5054775;28;20080;-62
2020/12/09 02:49:25;;;;;;;31.48;19.60;;;1.70;99.90;;;;;;5055020;28;20103;-63
2020/12/09 02:51:52;;;;;;;29.60;17.70;;;1.50;99.90;;;;;;5055080;28;20080;-63
2020/12/09 02:54:19;;;;;;;30.15;19.65;;;1.30;99.90;;;;;;5054749;28;20092;-62
2020/12/09 02:56:46;;;;;;;32.63;19.17;;;1.40;99.90;;;;;;5054374;28;20052;-63
2020/12/09 02:59:13;;;;;;;32.58;18.25;;;1.40;99.90;;;;;;5053154;28;20080;-65
2020/12/09 03:01:40;;;;;;;30.27;18.27;;;1.50;99.90;;;;;;5034063;28;20084;-63
2020/12/09 03:04:06;;;;;;;29.02;18.00;;;1.40;99.90;;;;;;5034766;28;20123;-63
2020/12/09 03:06:33;;;;;;;32.72;18.88;;;1.40;99.90;;;;;;5034312;28;20092;-63
2020/12/09 03:08:59;;;;;;;32.03;18.60;;;1.50;99.90;;;;;;5034521;28;20099;-63
2020/12/09 03:11:26;;;;;;;32.88;19.25;;;1.70;99.90;;;;;;5054155;28;20446;-63
2020/12/09 03:13:53;;;;;;;32.92;19.48;;;1.80;99.90;;;;;;5054526;28;20041;-63
2020/12/09 03:16:20;;;;;;;29.85;18.92;;;1.60;99.90;;;;;;5054209;28;20049;-63
2020/12/09 03:18:47;;;;;;;35.08;19.98;;;1.50;99.90;;;;;;5054434;28;20056;-63
2020/12/09 03:21:13;;;;;;;30.33;18.65;;;1.50;99.90;;;;;;5053688;28;20069;-63
2020/12/09 03:23:40;;;;;;;31.75;18.77;;;1.40;99.90;;;;;;5053973;28;20087;-63
2020/12/09 03:26:06;;;;;;;33.65;19.98;;;1.30;99.90;;;;;;5052906;28;20507;-64
2020/12/09 03:28:35;;;;;;;32.72;19.75;;;1.30;99.90;;;;;;5054340;28;20063;-63
2020/12/09 03:31:03;;;;;;;32.60;19.13;;;1.40;99.90;;;;;;5053592;28;20382;-63
2020/12/09 03:33:29;;;;;;;33.30;19.35;;;1.60;99.90;;;;;;5054031;28;20091;-63
2020/12/09 03:35:59;;;;;;;35.55;20.05;;;1.80;99.90;;;;;;5053945;28;20454;-63
2020/12/09 03:38:26;;;;;;;35.42;19.55;;;1.90;99.90;;;;;;5053591;28;20060;-63
2020/12/09 03:40:53;;;;;;;35.53;20.05;;;2.00;99.90;;;;;;5053844;28;20080;-63
2020/12/09 03:43:19;;;;;;;35.22;19.75;;;2.00;99.90;;;;;;5053966;28;20049;-63
2020/12/09 03:45:46;;;;;;;33.30;19.40;;;2.10;99.90;;;;;;5053822;28;20045;-63
2020/12/09 03:48:13;;;;;;;32.55;19.08;;;2.10;99.90;;;;;;5054109;28;20091;-63
2020/12/09 03:50:40;;;;;;;31.02;18.85;;;2.30;99.90;;;;;;5053148;28;20048;-63
2020/12/09 03:53:06;;;;;;;34.47;19.90;;;2.20;99.90;;;;;;5053723;28;20041;-63
2020/12/09 03:55:35;;;;;;;32.75;19.00;;;2.30;99.90;;;;;;5053776;28;20084;-63
2020/12/09 03:58:02;;;;;;;34.58;20.15;;;2.30;99.90;;;;;;5053597;28;20060;-63
2020/12/09 04:00:29;;;;;;;28.80;18.70;;;2.30;99.90;;;;;;5053062;28;20044;-62
2020/12/09 04:02:56;;;;;;;29.27;18.38;;;2.10;99.90;;;;;;5053039;28;20045;-61
2020/12/09 04:05:24;;;;;;;30.92;17.80;;;1.90;99.90;;;;;;5053220;28;20107;-61
2020/12/09 04:07:51;;;;;;;28.58;17.73;;;1.70;99.90;;;;;;5053106;28;20052;-63
2020/12/09 04:10:19;;;;;;;28.02;18.02;;;1.90;99.90;;;;;;5053237;28;20088;-62
2020/12/09 04:12:46;;;;;;;30.90;17.67;;;1.90;99.90;;;;;;5053117;28;20049;-62
2020/12/09 04:15:13;;;;;;;27.88;16.77;;;2.00;99.90;;;;;;5053278;28;20505;-63
2020/12/09 04:17:39;;;;;;;26.35;17.55;;;2.00;99.90;;;;;;5052971;28;20045;-63
2020/12/09 04:20:06;;;;;;;29.10;17.52;;;2.10;99.90;;;;;;5052681;28;20084;-63
2020/12/09 04:22:34;;;;;;;29.52;17.85;;;2.30;99.90;;;;;;5052938;28;20084;-63
2020/12/09 04:25:01;;;;;;;27.17;17.05;;;2.40;99.90;;;;;;5052943;28;20049;-63
2020/12/09 04:27:27;;;;;;;28.58;16.88;;;2.40;99.90;;;;;;5052960;28;20053;-63
2020/12/09 04:29:54;;;;;;;27.15;17.35;;;2.50;99.90;;;;;;5052604;28;20551;-62
2020/12/09 04:32:21;;;;;;;28.00;16.67;;;2.60;99.90;;;;;;5053193;28;20128;-63
2020/12/09 04:34:48;;;;;;;26.52;17.25;;;2.80;99.90;;;;;;5052940;28;20102;-62
2020/12/09 04:37:17;;;;;;;27.83;17.50;;;2.70;99.90;;;;;;5052589;28;20092;-62
2020/12/09 04:39:44;;;;;;;28.25;17.20;;;2.90;99.90;;;;;;5052497;28;20056;-63
2020/12/09 04:42:18;;;;;;;26.67;17.45;;;2.80;99.90;;;;;;5052784;28;20057;-63
2020/12/09 04:44:45;;;;;;;24.33;15.82;;;2.90;99.90;;;;;;5053088;28;20399;-63
2020/12/09 04:47:17;;;;;;;23.90;16.23;;;3.00;99.90;;;;;;5052656;28;20487;-63
2020/12/09 04:49:47;;;;;;;27.00;16.23;;;3.10;99.90;;;;;;5052744;28;20048;-63
2020/12/09 04:52:32;;;;;;;23.63;15.93;;;3.20;99.90;;;;;;5052806;28;20045;-63
2020/12/09 04:55:06;;;;;;;22.33;14.68;;;3.30;99.90;;;;;;5052535;28;20416;-63
2020/12/09 04:58:04;;;;;;;24.48;15.68;;;3.10;99.90;;;;;;5052581;28;20044;-63
2020/12/09 05:00:31;;;;;;;20.80;15.00;;;3.20;99.90;;;;;;5032184;28;20132;-62
2020/12/09 05:03:10;;;;;;;22.42;15.20;;;3.30;99.90;;;;;;5032142;28;20118;-63
2020/12/09 05:05:37;;;;;;;19.87;14.70;;;3.40;99.90;;;;;;5032599;28;20464;-63
2020/12/09 05:08:11;;;;;;;22.77;15.63;;;3.40;99.90;;;;;;5034775;28;20107;-63
2020/12/09 05:10:45;;;;;;;22.42;15.10;;;3.30;99.90;;;;;;5032704;28;20081;-63
2020/12/09 05:13:22;;;;;;;20.67;14.43;;;3.30;99.90;;;;;;5032555;28;20052;-63
2020/12/09 05:15:52;;;;;;;20.52;14.85;;;3.40;99.90;;;;;;5032372;28;20065;-63
2020/12/09 05:18:31;;;;;;;19.88;14.75;;;3.30;99.90;;;;;;5050225;28;20053;-62
2020/12/09 05:21:04;;;;;;;19.52;15.10;;;3.40;99.90;;;;;;5052421;28;20460;-63
2020/12/09 05:23:32;;;;;;;20.55;14.70;;;3.30;99.90;;;;;;5052428;28;20136;-63
2020/12/09 05:25:59;;;;;;;19.17;14.45;;;3.40;99.90;;;;;;5052311;28;20053;-62
2020/12/09 05:28:26;;;;;;;20.48;14.82;;;3.30;99.90;;;;;;5051588;28;20073;-62
2020/12/09 05:30:53;;;;;;;20.30;14.52;;;3.40;99.90;;;;;;5052069;28;20459;-63
2020/12/09 05:33:21;;;;;;;20.88;14.98;;;3.40;99.90;;;;;;5051458;28;20060;-63
2020/12/09 05:35:55;;;;;;;22.13;16.05;;;3.50;99.90;;;;;;5052262;28;20080;-63
2020/12/09 05:38:22;;;;;;;21.98;14.98;;;3.50;99.90;;;;;;5052301;28;20570;-63
2020/12/09 05:40:49;;;;;;;27.20;17.23;;;3.50;99.90;;;;;;5052256;28;20102;-63
2020/12/09 05:43:18;;;;;;;24.75;16.35;;;3.60;99.90;;;;;;5051979;28;20049;-63
2020/12/09 05:45:44;;;;;;;24.08;16.35;;;3.40;99.90;;;;;;5051780;28;20053;-63
2020/12/09 05:48:12;;;;;;;25.83;16.20;;;3.20;99.90;;;;;;5051931;28;20131;-63
2020/12/09 05:50:52;;;;;;;24.30;16.33;;;3.40;99.90;;;;;;5055508;28;20092;-63
2020/12/09 05:53:20;;;;;;;21.92;15.63;;;3.50;99.90;;;;;;5055185;28;20091;-63
2020/12/09 05:55:48;;;;;;;22.40;15.52;;;3.50;99.90;;;;;;5055721;28;20052;-63
2020/12/09 05:58:26;;;;;;;25.15;15.23;;;3.50;99.90;;;;;;5055074;28;20049;-63
2020/12/09 06:01:10;;;;;;;23.98;15.82;;;3.60;99.90;;;;;;5054021;28;20107;-63
2020/12/09 06:03:38;;;;;;;20.92;14.57;;;3.60;99.90;;;;;;5054613;28;20045;-63
2020/12/09 06:06:21;;;;;;;19.42;14.43;;;3.70;99.90;;;;;;5055324;28;20493;-63
2020/12/09 06:08:50;;;;;;;20.23;14.40;;;3.70;99.90;;;;;;5053975;28;20132;-63
2020/12/09 06:11:20;;;;;;;17.98;13.98;;;3.70;99.90;;;;;;5053659;28;20508;-62
2020/12/09 06:13:48;;;;;;;19.33;14.90;;;3.70;99.90;;;;;;5054477;28;20489;-63
2020/12/09 06:16:17;;;;;;;19.38;14.38;;;3.80;99.90;;;;;;5055162;28;20489;-63
2020/12/09 06:18:45;;;;;;;19.77;14.85;;;3.70;99.90;;;;;;5055300;28;20064;-63
2020/12/09 06:21:12;;;;;;;19.85;14.82;;;3.70;99.90;;;;;;5054947;28;20528;-63
2020/12/09 06:23:39;;;;;;;21.48;15.25;;;3.70;99.90;;;;;;5055295;28;20072;-63
2020/12/09 06:26:06;;;;;;;21.05;15.50;;;3.60;99.90;;;;;;5055026;28;20103;-63
2020/12/09 06:28:37;;;;;;;19.73;14.80;;;3.70;99.90;;;;;;5054732;28;20061;-63
2020/12/09 06:31:12;;;;;;;19.02;14.70;;;3.80;99.90;;;;;;5055210;28;20131;-63
2020/12/09 06:33:43;;;;;;;24.23;16.60;;;3.80;99.90;;;;;;5055807;28;20076;-63
2020/12/09 06:36:21;;;;;;;20.70;15.25;;;3.80;99.90;;;;;;5054621;28;20048;-63
2020/12/09 06:39:11;;;;;;;25.15;18.30;;;3.80;99.90;;;;;;5035149;28;20080;-63
2020/12/09 06:41:41;;;;;;;22.55;16.35;;;3.80;99.90;;;;;;5046176;28;20048;-63
2020/12/09 06:44:08;;;;;;;24.88;17.95;;;3.80;99.90;;;;;;5054508;28;20044;-63
2020/12/09 06:46:50;;;;;;;24.27;16.08;;;3.50;99.90;;;;;;5054273;28;20056;-63
2020/12/09 06:49:36;;;;;;;22.63;16.27;;;3.30;99.90;;;;;;5053985;28;20527;-63
2020/12/09 06:52:19;;;;;;;25.85;17.42;;;3.20;99.90;;;;;;5054623;28;20452;-63
2020/12/09 06:54:47;;;;;;;24.02;16.70;;;3.00;99.90;;;;;;5054396;28;20490;-63
2020/12/09 06:57:15;;;;;;;24.67;17.00;;;3.20;99.90;;;;;;5054568;28;20536;-63
2020/12/09 06:59:44;;;;;;;26.73;17.30;;;3.50;99.90;;;;;;5054538;28;20096;-63
2020/12/09 07:02:24;;;;;;;24.45;17.15;;;3.50;99.90;;;;;;5054294;28;20478;-63
2020/12/09 07:05:12;;;;;;;25.50;16.13;;;3.60;99.90;;;;;;5053924;28;20053;-63
2020/12/09 07:07:41;;;;;;;24.60;16.75;;;3.70;99.90;;;;;;5044555;28;20094;-63
2020/12/09 07:10:25;;;;;;;20.73;15.25;;;3.60;99.90;;;;;;5054283;28;20049;-63
2020/12/09 07:13:04;;;;;;;23.75;16.13;;;3.30;99.90;;;;;;5053874;28;20064;-63
2020/12/09 07:15:31;;;;;;;23.73;16.13;;;2.90;99.90;;;;;;5054753;28;20048;-63
2020/12/09 07:17:58;;;;;;;25.70;17.35;;;2.90;99.90;;;;;;5053884;28;20049;-63
2020/12/09 07:20:26;;;;;;;26.65;17.48;;;3.10;99.90;;;;;;5053567;28;20122;-63
2020/12/09 07:22:52;;;;;;;25.00;17.27;;;3.40;99.90;;;;;;5042855;28;20041;-63
2020/12/09 07:25:19;;;;;;;24.58;16.88;;;3.70;99.90;;;;;;5053762;28;20425;-63
2020/12/09 07:27:47;;;;;;;23.83;16.10;;;3.80;99.90;;;;;;5053686;28;20523;-63
2020/12/09 07:30:15;;;;;;;24.15;16.50;;;4.00;99.90;;;;;;5054019;28;20138;-63
2020/12/09 07:32:41;;;;;;;26.05;17.05;;;4.10;99.90;;;;;;5053877;28;20052;-63
2020/12/09 07:35:14;;;;;;;25.25;17.65;;;4.10;99.90;;;;;;5053714;28;20447;-63
2020/12/09 07:37:43;;;;;;;23.50;16.70;;;4.20;99.90;;;;;;5054235;28;20103;-63
2020/12/09 07:40:14;;;;;;;30.80;24.55;;;4.10;99.90;;;;;;5053772;28;20056;-63
2020/12/09 07:42:41;;;;;;;27.73;20.75;;;3.40;99.90;;;;;;5053948;28;20491;-63
2020/12/09 07:45:15;;;;;;;28.77;20.13;;;3.40;99.90;;;;;;5053508;28;20132;-63
2020/12/09 07:47:42;;;;;;;30.60;19.00;;;3.40;99.90;;;;;;5053909;28;20063;-63
2020/12/09 07:50:09;;;;;;;24.90;18.08;;;3.50;99.90;;;;;;5053917;28;20528;-62
2020/12/09 07:52:38;;;;;;;27.05;18.55;;;3.20;99.90;;;;;;5051758;28;20087;-62
2020/12/09 07:55:07;;;;;;;29.30;18.35;;;3.10;99.90;;;;;;5051517;28;20090;-62
2020/12/09 07:57:36;;;;;;;27.80;17.65;;;3.20;99.90;;;;;;5048321;28;20049;-64
2020/12/09 08:00:07;;;;;;;25.98;17.55;;;3.40;99.90;;;;;;5049741;28;20094;-64
2020/12/09 08:02:38;;;;;;;26.83;16.75;;;3.60;99.90;;;;;;5049922;28;20053;-64
2020/12/09 08:05:25;;;;;;;26.75;17.02;;;3.90;99.90;;;;;;5047266;28;20110;-64
2020/12/09 08:07:57;;;;;;;25.23;17.05;;;4.20;99.90;;;;;;5054266;28;20440;-64
2020/12/09 08:10:26;;;;;;;25.25;16.42;;;4.20;99.90;;;;;;5043410;28;20382;-64
2020/12/09 08:13:01;;;;;;;26.10;16.47;;;4.20;99.90;;;;;;5056034;28;20487;-64
2020/12/09 08:15:28;;;;;;;23.42;15.85;;;4.30;99.90;;;;;;5043436;28;20510;-64
2020/12/09 08:17:55;;;;;;;25.98;16.98;;;4.20;99.90;;;;;;5058652;28;20052;-64
2020/12/09 08:20:21;;;;;;;24.85;15.95;;;4.10;99.90;;;;;;5050740;28;20106;-64
2020/12/09 08:22:57;;;;;;;24.63;17.25;;;4.10;99.90;;;;;;5057788;28;20078;-64
2020/12/09 08:25:25;;;;;;;25.50;16.98;;;4.10;99.90;;;;;;5050284;28;20163;-64
2020/12/09 08:27:52;;;;;;;26.05;17.30;;;4.00;99.90;;;;;;5055255;28;20159;-64
2020/12/09 08:30:21;;;;;;;26.90;17.58;;;4.10;99.90;;;;;;5049634;28;20390;-64
2020/12/09 08:33:04;;;;;;;33.80;18.20;;;4.10;99.90;;;;;;5049178;28;20061;-64
2020/12/09 08:35:42;;;;;;;29.30;19.00;;;4.40;99.90;;;;;;5047960;28;20140;-65
2020/12/09 08:38:09;;;;;;;30.33;19.42;;;4.50;99.90;;;;;;5058209;28;20050;-64
2020/12/09 08:40:36;;;;;;;29.52;19.20;;;4.40;99.90;;;;;;5050179;28;20084;-64
2020/12/09 08:43:03;;;;;;;29.83;18.55;;;4.30;99.90;;;;;;5058093;28;20095;-64
2020/12/09 08:45:30;;;;;;;27.48;18.38;;;4.30;99.90;;;;;;5050433;28;20049;-65
2020/12/09 08:47:57;;;;;;;27.30;17.55;;;4.60;99.90;;;;;;5049844;28;20472;-64
2020/12/09 08:50:23;;;;;;;30.83;18.75;;;4.80;99.90;;;;;;5050069;28;20048;-65
2020/12/09 08:52:50;;;;;;;29.25;18.92;;;4.90;99.90;;;;;;5053349;28;20076;-64
2020/12/09 08:55:17;;;;;;;33.97;21.27;;;4.90;99.90;;;;;;5049667;28;20489;-65
2020/12/09 08:57:44;;;;;;;29.05;19.05;;;5.00;99.90;;;;;;5044367;28;20053;-64
2020/12/09 09:00:10;;;;;;;34.65;20.55;;;5.10;99.90;;;;;;5049821;28;20103;-65
2020/12/09 09:02:38;;;;;;;27.65;18.55;;;5.20;99.90;;;;;;5054509;28;20048;-65
2020/12/09 09:05:05;;;;;;;25.95;18.23;;;5.30;99.90;;;;;;5045574;28;20060;-64
2020/12/09 09:07:32;;;;;;;25.25;18.67;;;5.30;99.90;;;;;;5051574;28;20413;-64
2020/12/09 09:09:59;;;;;;;26.20;18.60;;;5.40;99.90;;;;;;5050671;28;20052;-64
2020/12/09 09:12:29;;;;;;;29.95;19.17;;;5.30;99.90;;;;;;5051948;28;20464;-64
2020/12/09 09:15:01;;;;;;;29.85;19.58;;;5.40;99.90;;;;;;5051938;28;20110;-64
2020/12/09 09:17:27;;;;;;;30.70;19.40;;;5.40;99.90;;;;;;5052900;28;20053;-64
2020/12/09 09:19:54;;;;;;;26.75;18.23;;;5.50;99.90;;;;;;5051672;28;20098;-64
2020/12/09 09:22:21;;;;;;;29.10;18.92;;;5.50;99.90;;;;;;5051370;28;20389;-64
2020/12/09 09:24:48;;;;;;;29.83;20.65;;;5.50;99.90;;;;;;5054077;28;20104;-64
2020/12/09 09:27:15;;;;;;;33.33;21.60;;;5.50;99.90;;;;;;5056811;28;20179;-64
2020/12/09 09:29:42;;;;;;;33.13;21.58;;;5.50;99.90;;;;;;5055670;28;20087;-64
2020/12/09 09:32:10;;;;;;;26.58;18.85;;;5.50;99.90;;;;;;5056904;28;20085;-64
2020/12/09 09:34:37;;;;;;;31.77;20.90;;;5.50;99.90;;;;;;5058713;28;20064;-64
2020/12/09 09:37:06;;;;;;;37.30;24.80;;;5.60;99.90;;;;;;5056571;28;20044;-64
2020/12/09 09:39:33;;;;;;;33.08;22.45;;;5.70;99.90;;;;;;5055673;28;20072;-64
2020/12/09 09:41:59;;;;;;;33.22;22.27;;;5.70;99.90;;;;;;5054944;28;20045;-65
2020/12/09 09:44:26;;;;;;;35.70;23.35;;;5.70;99.90;;;;;;5060489;28;20049;-65
2020/12/09 09:46:57;;;;;;;32.83;21.30;;;5.70;99.90;;;;;;5055584;28;20045;-64
2020/12/09 09:49:23;;;;;;;32.40;22.45;;;5.80;99.90;;;;;;5052845;28;20083;-65
2020/12/09 09:51:51;;;;;;;33.17;22.00;;;5.80;99.90;;;;;;5055037;28;20084;-65
2020/12/09 09:54:18;;;;;;;34.97;22.67;;;5.80;99.90;;;;;;5074774;28;20064;-65
2020/12/09 09:56:48;;;;;;;31.92;21.67;;;5.80;99.90;;;;;;5062714;28;20049;-64
2020/12/09 09:59:15;;;;;;;33.05;22.60;;;5.80;99.90;;;;;;5068235;28;20534;-64
2020/12/09 10:01:42;;;;;;;34.20;22.75;;;5.90;99.90;;;;;;5054287;28;20056;-64
2020/12/09 10:04:09;;;;;;;33.40;21.70;;;5.70;99.90;;;;;;5057627;28;20045;-64
2020/12/09 10:06:36;;;;;;;39.85;24.48;;;5.60;99.90;;;;;;5054194;28;20131;-64
2020/12/09 10:09:06;;;;;;;38.35;24.98;;;5.60;99.90;;;;;;5072472;28;20474;-64
2020/12/09 10:11:35;;;;;;;;;;;5.70;99.90;;;;;;5058529;28;20048;-64
2020/12/09 10:14:02;;;;;;;42.28;25.75;;;5.60;99.90;;;;;;5053696;28;20388;-65
2020/12/09 10:16:28;;;;;;;40.67;24.58;;;5.50;99.90;;;;;;5054343;28;20053;-65
2020/12/09 10:18:55;;;;;;;41.92;24.77;;;5.50;99.90;;;;;;5071318;28;20086;-65
2020/12/09 10:21:23;;;;;;;40.83;25.33;;;5.70;99.90;;;;;;5061079;28;20549;-65
2020/12/09 10:23:50;;;;;;;43.03;27.80;;;5.60;99.90;;;;;;5054350;28;20187;-65
2020/12/09 10:26:17;;;;;;;46.20;27.83;;;5.70;99.90;;;;;;5054833;28;20048;-65
2020/12/09 10:28:44;;;;;;;44.38;27.45;;;5.70;99.90;;;;;;5056837;28;20470;-65
2020/12/09 10:31:11;;;;;;;48.83;28.98;;;5.80;99.90;;;;;;5054876;28;20056;-65
2020/12/09 10:33:37;;;;;;;48.00;29.05;;;5.80;99.90;;;;;;5054533;28;20076;-65
2020/12/09 10:36:05;;;;;;;50.17;31.20;;;6.00;99.90;;;;;;5054302;28;20095;-65
2020/12/09 10:38:32;;;;;;;50.95;30.25;;;6.10;99.90;;;;;;5053676;28;20106;-65
2020/12/09 10:40:59;;;;;;;49.80;29.58;;;6.20;99.90;;;;;;5054167;28;20045;-65
2020/12/09 10:43:26;;;;;;;51.83;30.63;;;6.20;99.90;;;;;;5065799;28;20052;-65
2020/12/09 10:45:53;;;;;;;52.33;31.52;;;6.30;99.90;;;;;;5063244;28;20460;-64
2020/12/09 10:48:20;;;;;;;48.60;29.60;;;6.30;99.90;;;;;;5065312;28;20174;-65
2020/12/09 10:50:46;;;;;;;50.00;30.85;;;6.30;99.90;;;;;;5056090;28;20131;-65
2020/12/09 10:53:13;;;;;;;53.33;33.10;;;6.30;99.90;;;;;;5064671;28;20048;-65
2020/12/09 10:55:41;;;;;;;53.15;31.75;;;6.40;99.90;;;;;;5060219;28;20080;-65
2020/12/09 10:58:08;;;;;;;52.85;31.15;;;6.40;99.90;;;;;;5054166;28;20103;-65
2020/12/09 11:00:34;;;;;;;51.58;31.92;;;6.40;99.90;;;;;;5053482;28;20049;-65
2020/12/09 11:03:01;;;;;;;52.97;33.20;;;6.40;99.90;;;;;;5051853;28;20095;-65
2020/12/09 11:05:27;;;;;;;54.20;31.83;;;6.50;99.90;;;;;;5053069;28;20494;-65
2020/12/09 11:07:54;;;;;;;55.50;32.70;;;6.50;99.90;;;;;;5049310;28;20107;-65
2020/12/09 11:10:21;;;;;;;51.28;32.05;;;6.50;99.90;;;;;;5053883;28;20406;-65
2020/12/09 11:12:48;;;;;;;50.03;30.35;;;6.50;99.90;;;;;;5056180;28;20048;-65
2020/12/09 11:15:15;;;;;;;51.83;32.00;;;6.60;99.90;;;;;;5053314;28;20103;-65
2020/12/09 11:17:41;;;;;;;46.92;29.23;;;6.60;99.90;;;;;;5059849;28;20084;-65
2020/12/09 11:20:13;;;;;;;53.83;31.52;;;6.60;99.90;;;;;;5063112;28;20056;-65
2020/12/09 11:22:40;;;;;;;51.67;31.05;;;6.40;99.90;;;;;;5059833;28;20044;-65
2020/12/09 11:25:07;;;;;;;46.10;29.27;;;6.50;99.90;;;;;;5061245;28;20041;-65
2020/12/09 11:27:33;;;;;;;48.53;30.30;;;6.60;99.90;;;;;;5059015;28;20428;-65
2020/12/09 11:30:04;;;;;;;51.38;32.60;;;6.60;99.90;;;;;;5059772;28;20102;-65
2020/12/09 11:32:32;;;;;;;52.03;32.58;;;6.60;99.90;;;;;;5058284;28;20044;-65
2020/12/09 11:34:59;;;;;;;55.08;34.38;;;6.70;99.90;;;;;;5060535;28;20068;-65
2020/12/09 11:37:29;;;;;;;52.45;32.83;;;6.70;99.90;;;;;;5057094;28;20098;-65
2020/12/09 11:39:55;;;;;;;53.72;33.28;;;6.70;99.90;;;;;;5052770;28;20092;-65
2020/12/09 11:42:22;;;;;;;54.53;32.63;;;6.70;99.90;;;;;;5047626;28;20052;-65
2020/12/09 11:44:48;;;;;;;57.55;34.42;;;6.70;99.90;;;;;;5054394;28;20450;-65
2020/12/09 11:47:15;;;;;;;57.22;33.38;;;6.70;99.90;;;;;;5052126;28;20044;-65
2020/12/09 11:49:42;;;;;;;55.63;33.78;;;6.70;99.90;;;;;;5052814;28;20094;-65
2020/12/09 11:52:08;;;;;;;58.75;35.00;;;6.80;99.90;;;;;;5054762;28;20568;-65
2020/12/09 11:54:35;;;;;;;60.90;36.13;;;6.80;99.90;;;;;;5060772;28;20041;-65
2020/12/09 11:57:02;;;;;;;54.33;33.15;;;6.80;99.90;;;;;;5053050;28;20045;-64
2020/12/09 11:59:28;;;;;;;59.03;34.53;;;6.80;99.90;;;;;;5061395;28;20508;-65
2020/12/09 12:01:55;;;;;;;57.85;34.95;;;6.90;99.90;;;;;;5052461;28;20122;-65
2020/12/09 12:04:22;;;;;;;57.95;34.20;;;6.90;99.90;;;;;;5051998;28;20544;-65
2020/12/09 12:06:49;;;;;;;57.97;34.15;;;6.90;99.90;;;;;;5052517;28;20064;-65
2020/12/09 12:09:16;;;;;;;61.53;36.30;;;6.90;99.90;;;;;;5060054;28;20053;-65
2020/12/09 12:11:42;;;;;;;59.45;34.78;;;7.00;99.90;;;;;;5052542;28;20140;-65
2020/12/09 12:14:09;;;;;;;62.58;36.35;;;7.00;99.90;;;;;;5060790;28;20048;-65
2020/12/09 12:16:35;;;;;;;61.00;35.83;;;7.00;99.90;;;;;;5052909;28;20076;-65
2020/12/09 12:19:02;;;;;;;57.72;35.03;;;7.10;99.90;;;;;;5052600;28;20053;-65
2020/12/09 12:21:32;;;;;;;58.00;35.72;;;7.10;99.90;;;;;;5052658;28;20049;-65
2020/12/09 12:23:58;;;;;;;58.50;34.80;;;7.20;99.90;;;;;;5052318;28;20123;-64
2020/12/09 12:26:25;;;;;;;60.05;35.15;;;7.20;99.90;;;;;;5052394;28;20056;-65
2020/12/09 12:28:52;;;;;;;56.03;34.75;;;7.30;99.90;;;;;;5053745;28;20148;-65
2020/12/09 12:31:20;;;;;;;59.40;36.45;;;7.40;99.90;;;;;;5052417;28;20074;-65
2020/12/09 12:33:47;;;;;;;58.00;34.38;;;7.50;99.90;;;;;;5067529;28;20451;-65
2020/12/09 12:36:14;;;;;;;60.17;36.15;;;7.60;99.90;;;;;;5052549;28;20114;-65
2020/12/09 12:38:42;;;;;;;59.22;35.58;;;7.70;99.90;;;;;;5066838;28;20048;-65
2020/12/09 12:41:09;;;;;;;54.33;34.20;;;7.90;99.90;;;;;;5072727;28;20091;-65
2020/12/09 12:43:36;;;;;;;51.63;32.70;;;8.20;99.90;;;;;;5057616;28;20478;-65
2020/12/09 12:46:03;;;;;;;51.97;33.67;;;8.30;99.90;;;;;;5050909;28;20407;-65
2020/12/09 12:48:29;;;;;;;54.85;34.90;;;8.50;99.90;;;;;;5051844;28;20145;-65